KPLR

Details ICAO KPLR
Name ST CLAIR CO
Region United States
Timezone America/Chicago (UTC-5.0)
Plans Departing 6
Arriving 4
Stats Elevation 485 ft / 148 m (AMSL)
Location 33.558830° -86.249034°
Runways 1
Magnetic Variation 3.862° W
Sunrise 2018-05-22 10:41:31 UTC / 2018-05-22 05:41:31 Local
Sunset 2018-05-23 00:44:42 UTC / 2018-05-22 19:44:42 Local
Advertisement - Login to hide

Runways

ID Width Length Bearing (true) Bearing (mag) Surface Threshold Offset Overrun Length
02 80 ft / 24 m 5,012 ft / 1,528 m 22.02° 25.88° Asphalt 39 ft / 12 m 0 ft / 0 m
20 80 ft / 24 m 5,012 ft / 1,528 m 202.03° 205.89° Asphalt 0 ft / 0 m 0 ft / 0 m

Map

Weather


0- 5 10 15 20 25 30 35+ Temperature / ° C

Clouds and Precipitation
Forecast for 2018-05-22 12:00 UTC. Updated an hour ago

Ground ~20,000 ft ~40,000 ft Winds

METAR

KPLR 221035Z AUTO 07003KT 10SM BKN023 21/21 A3005 RMK A01

TAF

Not found

Frequencies

Unicom 123.05 MHz CTAF/UNICOM
Approach 123.80 MHz BIRMINGHAM APP/DEP
Warning: Do not use this data for real-world aviation or navigation. No guarantee of current accuracy is given.